Weather at Astypalaia Airport

Public forecast

Using degrees Celsius for public forecast. Weather courtesy of forecast.io.

Closest aviation weather report (METAR) to Astypalaia Airport

Closest report is Kos Airport, 36.8 nm (68.1 km) ENE. Retrieved 2021/04/12 22:20 UTC (36 minutes ago):

LGKO 122220Z VRB03KT CAVOK 12/05 Q1020

Closest aviation forecast (TAF) to Astypalaia Airport

Closest forecast is Kos Airport, 36.8 nm (68.1 km) ENE. Retrieved 2021/04/12 18:00 UTC (5 hours ago):

TAF LGKO 121700Z 1218/1318 36010KT 9999 FEW020 BECMG 1310/1312 25010KT